Time;durP1;ratioP1;P1;durP2;ratioP2;P2;SDS_P1;SDS_P2;PMS_P1;PMS_P2;Temp;Humidity;BMP_temperature;BMP_pressure;BME280_temperature;BME280_humidity;BME280_pressure;Samples;Min_cycle;Max_cycle;Signal;HPM_P1;HPM_P2
2024/02/17 00:01:30;;;;;;;7.23;6.57;;;12.50;99.90;;;;;;4992048;28;20520;-67
2024/02/17 00:03:56;;;;;;;7.13;6.43;;;12.50;99.90;;;;;;4991558;28;20199;-66
2024/02/17 00:06:21;;;;;;;7.70;7.10;;;12.50;99.90;;;;;;4979629;28;20472;-66
2024/02/17 00:08:46;;;;;;;7.73;7.03;;;12.50;99.90;;;;;;4991772;28;20187;-66
2024/02/17 00:11:12;;;;;;;9.50;6.67;;;12.50;99.90;;;;;;4990708;28;20171;-66
2024/02/17 00:13:37;;;;;;;8.17;7.47;;;12.50;99.90;;;;;;4991986;28;20615;-65
2024/02/17 00:16:03;;;;;;;8.00;7.30;;;12.50;99.90;;;;;;4991306;28;20207;-66
2024/02/17 00:18:29;;;;;;;7.47;6.77;;;12.50;99.90;;;;;;4990762;28;20191;-66
2024/02/17 00:20:57;;;;;;;9.40;6.40;;;12.50;99.90;;;;;;4991735;28;20175;-66
2024/02/17 00:23:23;;;;;;;7.60;6.90;;;12.50;99.90;;;;;;4985117;28;20529;-66
2024/02/17 00:25:48;;;;;;;7.47;6.67;;;12.50;99.90;;;;;;4991358;28;20443;-66
2024/02/17 00:28:14;;;;;;;7.83;6.77;;;12.50;99.90;;;;;;4991433;28;20196;-66
2024/02/17 00:30:40;;;;;;;9.87;7.07;;;12.60;99.90;;;;;;4991976;28;20633;-66
2024/02/17 00:33:06;;;;;;;5.97;5.37;;;12.50;99.90;;;;;;4990374;28;20183;-66
2024/02/17 00:35:31;;;;;;;11.13;6.67;;;12.50;99.90;;;;;;4990144;28;20453;-66
2024/02/17 00:37:57;;;;;;;7.07;5.93;;;12.50;99.90;;;;;;4990218;28;20287;-66
2024/02/17 00:40:22;;;;;;;6.20;5.70;;;12.50;99.90;;;;;;4992326;28;20203;-66
2024/02/17 00:42:48;;;;;;;7.00;6.30;;;12.50;99.90;;;;;;4991035;28;20172;-66
2024/02/17 00:45:13;;;;;;;6.50;6.00;;;12.60;99.90;;;;;;4991789;28;20206;-66
2024/02/17 00:47:39;;;;;;;5.87;5.47;;;12.50;99.90;;;;;;4993464;28;20203;-66
2024/02/17 00:50:05;;;;;;;10.80;6.10;;;12.60;99.90;;;;;;4995357;28;20180;-66
2024/02/17 00:52:31;;;;;;;7.53;6.33;;;12.60;99.90;;;;;;4996270;28;20690;-66
2024/02/17 00:54:56;;;;;;;8.53;6.83;;;12.60;99.90;;;;;;4995508;28;20438;-66
2024/02/17 00:57:22;;;;;;;8.13;6.70;;;12.60;99.90;;;;;;4994579;28;20218;-66
2024/02/17 00:59:47;;;;;;;7.23;6.60;;;12.50;99.90;;;;;;4995443;28;20214;-66
2024/02/17 01:02:13;;;;;;;7.27;6.57;;;12.50;99.90;;;;;;4995464;28;20318;-66
2024/02/17 01:04:38;;;;;;;8.37;7.50;;;12.50;99.90;;;;;;4995362;28;20185;-66
2024/02/17 01:07:04;;;;;;;8.53;7.03;;;12.50;99.90;;;;;;4993785;28;20210;-66
2024/02/17 01:09:29;;;;;;;10.00;6.60;;;12.40;99.90;;;;;;4994336;28;20197;-66
2024/02/17 01:11:55;;;;;;;9.63;7.53;;;12.50;99.90;;;;;;4988654;28;20184;-66
2024/02/17 01:14:21;;;;;;;8.67;8.07;;;12.40;99.90;;;;;;4992709;28;20307;-66
2024/02/17 01:16:46;;;;;;;9.37;7.90;;;12.40;99.90;;;;;;4993391;28;20199;-66
2024/02/17 01:19:12;;;;;;;9.07;7.53;;;12.40;99.90;;;;;;4990786;28;20427;-66
2024/02/17 01:21:37;;;;;;;9.10;8.20;;;12.30;99.90;;;;;;4995084;28;20653;-66
2024/02/17 01:24:04;;;;;;;8.60;7.80;;;12.30;99.90;;;;;;4995859;28;20264;-66
2024/02/17 01:26:29;;;;;;;11.93;7.63;;;12.30;99.90;;;;;;4989643;28;20192;-66
2024/02/17 01:28:55;;;;;;;8.43;7.67;;;12.30;99.90;;;;;;4991332;28;20431;-66
2024/02/17 01:31:20;;;;;;;8.93;7.30;;;12.20;99.90;;;;;;4994873;28;20191;-66
2024/02/17 01:33:49;;;;;;;7.37;6.70;;;12.20;99.90;;;;;;4993588;28;20298;-66
2024/02/17 01:36:16;;;;;;;11.93;7.93;;;12.30;99.90;;;;;;4994171;28;20619;-66
2024/02/17 01:38:42;;;;;;;8.60;7.80;;;12.40;99.90;;;;;;4994148;28;20450;-67
2024/02/17 01:41:08;;;;;;;9.10;8.20;;;12.30;99.90;;;;;;4995523;28;20469;-67
2024/02/17 01:43:34;;;;;;;9.40;8.40;;;12.30;99.90;;;;;;4994595;28;20465;-67
2024/02/17 01:45:59;;;;;;;8.53;7.80;;;12.20;99.90;;;;;;4992176;28;20184;-67
2024/02/17 01:48:25;;;;;;;8.83;7.90;;;12.20;99.90;;;;;;4993946;28;20576;-67
2024/02/17 01:50:51;;;;;;;8.00;7.20;;;12.10;99.90;;;;;;4993646;28;20195;-67
2024/02/17 01:53:17;;;;;;;8.13;6.80;;;12.10;99.90;;;;;;4995433;28;20180;-67
2024/02/17 01:55:43;;;;;;;7.77;7.17;;;12.10;99.90;;;;;;4994444;28;20453;-67
2024/02/17 01:58:10;;;;;;;8.03;6.40;;;12.10;99.90;;;;;;4993233;28;20203;-67
2024/02/17 02:00:37;;;;;;;7.00;6.40;;;12.10;99.90;;;;;;4993579;28;20806;-67
2024/02/17 02:03:03;;;;;;;8.27;7.07;;;12.00;99.90;;;;;;4991965;28;20468;-67
2024/02/17 02:05:29;;;;;;;7.03;6.37;;;12.10;99.90;;;;;;4993327;28;20435;-67
2024/02/17 02:07:54;;;;;;;6.60;6.00;;;12.10;99.90;;;;;;4983348;28;20204;-67
2024/02/17 02:10:20;;;;;;;7.40;6.70;;;12.10;99.90;;;;;;4993824;28;20195;-67
2024/02/17 02:12:45;;;;;;;7.97;7.17;;;12.10;99.90;;;;;;4992793;28;20266;-67
2024/02/17 02:15:12;;;;;;;8.63;7.20;;;12.10;99.90;;;;;;4993356;28;20196;-66
2024/02/17 02:17:38;;;;;;;7.57;6.87;;;12.10;99.90;;;;;;4993573;28;20238;-67
2024/02/17 02:20:05;;;;;;;7.60;5.90;;;12.20;99.90;;;;;;4985318;28;21046;-67
2024/02/17 02:22:31;;;;;;;7.20;5.43;;;12.20;99.90;;;;;;4993054;28;20500;-67
2024/02/17 02:24:59;;;;;;;7.23;6.33;;;12.20;99.90;;;;;;4986263;28;20438;-67
2024/02/17 02:27:25;;;;;;;5.70;5.10;;;12.20;99.90;;;;;;4993554;28;20203;-67
2024/02/17 02:29:52;;;;;;;5.67;5.17;;;12.30;99.90;;;;;;4993463;28;20476;-67
2024/02/17 02:32:18;;;;;;;6.27;5.67;;;12.30;99.90;;;;;;4985719;28;20489;-67
2024/02/17 02:34:44;;;;;;;4.13;3.40;;;12.20;99.90;;;;;;4992673;28;20439;-68
2024/02/17 02:37:10;;;;;;;4.70;4.30;;;12.10;99.90;;;;;;4993694;28;20894;-67
2024/02/17 02:39:36;;;;;;;3.97;3.63;;;11.80;99.90;;;;;;4993312;28;20442;-67
2024/02/17 02:42:01;;;;;;;4.73;4.33;;;11.70;99.90;;;;;;4989472;28;20190;-67
2024/02/17 02:44:27;;;;;;;5.70;4.60;;;11.60;99.90;;;;;;4991535;28;20434;-67
2024/02/17 02:46:52;;;;;;;7.43;6.73;;;11.50;99.90;;;;;;4992411;28;20216;-67
2024/02/17 02:49:18;;;;;;;6.70;6.10;;;11.50;99.90;;;;;;4992990;28;20597;-67
2024/02/17 02:51:43;;;;;;;5.83;5.33;;;11.50;99.90;;;;;;4988698;28;20183;-67
2024/02/17 02:54:09;;;;;;;6.83;6.23;;;11.50;99.90;;;;;;4991748;28;20246;-66
2024/02/17 02:56:34;;;;;;;8.13;6.20;;;11.40;99.90;;;;;;4992403;28;20268;-67
2024/02/17 02:59:00;;;;;;;6.87;6.23;;;11.50;99.90;;;;;;4993694;28;20171;-67
2024/02/17 03:01:25;;;;;;;7.83;7.03;;;11.50;99.90;;;;;;4993104;28;20182;-67
2024/02/17 03:03:51;;;;;;;8.00;6.90;;;11.50;99.90;;;;;;4992656;28;20629;-67
2024/02/17 03:06:16;;;;;;;9.03;8.13;;;11.40;99.90;;;;;;4991026;28;20200;-68
2024/02/17 03:08:42;;;;;;;8.30;7.50;;;11.40;99.90;;;;;;4992776;28;20188;-67
2024/02/17 03:11:07;;;;;;;9.47;8.47;;;11.40;99.90;;;;;;4993184;28;20183;-67
2024/02/17 03:13:36;;;;;;;8.33;7.50;;;11.40;99.90;;;;;;4992636;28;20192;-67
2024/02/17 03:16:01;;;;;;;9.20;8.30;;;11.30;99.90;;;;;;4992707;28;20553;-67
2024/02/17 03:18:27;;;;;;;9.90;8.90;;;11.30;99.90;;;;;;4992373;28;20469;-66
2024/02/17 03:20:53;;;;;;;11.03;9.90;;;11.20;99.90;;;;;;4992440;28;20194;-67
2024/02/17 03:23:19;;;;;;;11.77;10.57;;;11.20;99.90;;;;;;4992393;28;20282;-67
2024/02/17 03:25:44;;;;;;;12.30;10.53;;;11.20;99.90;;;;;;4993408;28;20505;-68
2024/02/17 03:28:10;;;;;;;13.43;12.10;;;11.20;99.90;;;;;;4992127;28;20210;-67
2024/02/17 03:30:35;;;;;;;12.80;11.40;;;11.20;99.90;;;;;;4992472;28;20226;-67
2024/02/17 03:33:01;;;;;;;13.17;11.60;;;11.20;99.90;;;;;;4991377;28;20262;-68
2024/02/17 03:35:26;;;;;;;11.53;10.33;;;11.20;99.90;;;;;;4991765;28;20187;-67
2024/02/17 03:37:52;;;;;;;11.53;10.40;;;11.20;99.90;;;;;;4992645;28;20218;-68
2024/02/17 03:40:17;;;;;;;12.93;10.57;;;11.10;99.90;;;;;;4992410;28;20238;-68
2024/02/17 03:42:43;;;;;;;15.63;11.80;;;11.10;99.90;;;;;;4983913;28;20210;-67
2024/02/17 03:45:09;;;;;;;13.60;10.00;;;11.10;99.90;;;;;;4990701;28;20176;-67
2024/02/17 03:47:34;;;;;;;12.30;11.00;;;11.10;99.90;;;;;;4991775;28;20227;-68
2024/02/17 03:50:00;;;;;;;10.73;9.60;;;11.10;99.90;;;;;;4992058;28;20434;-68
2024/02/17 03:52:25;;;;;;;12.03;10.87;;;11.00;99.90;;;;;;4991883;28;20180;-67
2024/02/17 03:54:51;;;;;;;11.67;9.00;;;11.00;99.90;;;;;;4986660;28;20180;-67
2024/02/17 03:57:19;;;;;;;12.27;10.63;;;11.10;99.90;;;;;;4991347;28;20207;-67
2024/02/17 03:59:45;;;;;;;11.57;10.10;;;11.10;99.90;;;;;;4991363;28;20176;-68
2024/02/17 04:02:10;;;;;;;10.47;9.20;;;11.10;99.90;;;;;;4984901;28;20580;-67
2024/02/17 04:04:35;;;;;;;11.17;9.97;;;11.10;99.90;;;;;;4991037;28;20624;-68
2024/02/17 04:07:01;;;;;;;13.23;9.40;;;11.10;99.90;;;;;;4992344;28;20191;-67
2024/02/17 04:09:26;;;;;;;12.30;9.17;;;11.10;99.90;;;;;;4987488;28;20192;-68
2024/02/17 04:11:52;;;;;;;11.27;9.37;;;11.10;99.90;;;;;;4991225;28;20179;-68
2024/02/17 04:14:18;;;;;;;11.10;9.40;;;11.10;99.90;;;;;;4988909;28;20566;-67
2024/02/17 04:16:44;;;;;;;12.20;10.30;;;11.00;99.90;;;;;;4982574;28;20311;-67
2024/02/17 04:19:09;;;;;;;11.73;9.70;;;11.10;99.90;;;;;;4990483;28;20449;-68
2024/02/17 04:21:35;;;;;;;11.23;10.07;;;11.10;99.90;;;;;;4992767;28;20258;-68
2024/02/17 04:24:00;;;;;;;10.47;9.37;;;11.10;99.90;;;;;;4989243;28;20268;-67
2024/02/17 04:26:26;;;;;;;10.20;9.10;;;11.10;99.90;;;;;;4984239;28;20175;-67
2024/02/17 04:28:51;;;;;;;13.63;10.30;;;11.10;99.90;;;;;;4991521;28;20186;-68
2024/02/17 04:31:17;;;;;;;10.30;9.20;;;11.20;99.90;;;;;;4992023;28;20175;-67
2024/02/17 04:33:42;;;;;;;12.80;10.33;;;11.10;99.90;;;;;;4991025;28;20180;-68
2024/02/17 04:36:08;;;;;;;10.17;8.87;;;11.20;99.90;;;;;;4989639;28;20215;-67
2024/02/17 04:38:34;;;;;;;11.03;9.60;;;11.10;99.90;;;;;;4989069;28;20294;-67
2024/02/17 04:41:00;;;;;;;10.60;9.50;;;11.20;99.90;;;;;;4991809;28;21010;-68
2024/02/17 04:43:25;;;;;;;10.40;9.13;;;11.20;99.90;;;;;;4991770;28;20526;-67
2024/02/17 04:45:51;;;;;;;9.57;8.40;;;11.30;99.90;;;;;;4986335;28;20194;-68
2024/02/17 04:48:17;;;;;;;13.13;9.87;;;11.20;99.90;;;;;;4990718;28;20192;-68
2024/02/17 04:50:43;;;;;;;12.17;9.67;;;11.20;99.90;;;;;;4992379;28;20287;-68
2024/02/17 04:53:08;;;;;;;11.87;10.40;;;11.30;99.90;;;;;;4991540;28;20206;-68
2024/02/17 04:55:34;;;;;;;13.73;10.90;;;11.30;99.90;;;;;;4992424;28;20412;-68
2024/02/17 04:57:59;;;;;;;14.70;11.37;;;11.30;99.90;;;;;;4990081;28;20202;-68
2024/02/17 05:00:25;;;;;;;12.20;10.90;;;11.20;99.90;;;;;;4990814;28;20203;-68
2024/02/17 05:02:51;;;;;;;11.73;9.20;;;11.20;99.90;;;;;;4991459;28;20595;-68
2024/02/17 05:05:19;;;;;;;12.10;10.20;;;11.20;99.90;;;;;;4991185;28;20210;-68
2024/02/17 05:07:47;;;;;;;13.20;10.50;;;11.10;99.90;;;;;;4991047;28;20648;-67
2024/02/17 05:10:13;;;;;;;13.30;10.97;;;11.00;99.90;;;;;;4990833;28;20430;-68
2024/02/17 05:12:39;;;;;;;14.00;11.73;;;11.00;99.90;;;;;;4984233;28;20438;-67
2024/02/17 05:15:05;;;;;;;13.80;11.67;;;11.00;99.90;;;;;;4991839;28;20660;-68
2024/02/17 05:17:31;;;;;;;16.93;12.87;;;11.00;99.90;;;;;;4991136;28;20477;-68
2024/02/17 05:19:57;;;;;;;17.00;12.37;;;11.00;99.90;;;;;;4990522;28;20434;-68
2024/02/17 05:22:22;;;;;;;17.93;12.87;;;11.00;99.90;;;;;;4990819;28;20214;-68
2024/02/17 05:24:48;;;;;;;13.13;10.90;;;11.00;99.90;;;;;;4988146;28;20638;-68
2024/02/17 05:27:14;;;;;;;16.40;13.43;;;11.00;99.90;;;;;;4991744;28;20200;-67
2024/02/17 05:29:40;;;;;;;14.60;12.23;;;11.00;99.90;;;;;;4987495;28;20449;-67
2024/02/17 05:32:07;;;;;;;12.80;10.27;;;11.10;99.90;;;;;;4990970;28;20180;-68
2024/02/17 05:34:32;;;;;;;14.77;13.10;;;11.10;99.90;;;;;;4995424;28;20445;-68
2024/02/17 05:36:59;;;;;;;14.90;12.30;;;11.10;99.90;;;;;;4976912;28;20469;-67
2024/02/17 05:39:24;;;;;;;16.20;12.10;;;11.00;99.90;;;;;;4994682;28;20203;-68
2024/02/17 05:41:51;;;;;;;15.20;13.37;;;11.00;99.90;;;;;;4994578;28;20439;-67
2024/02/17 05:44:16;;;;;;;18.30;13.37;;;10.90;99.90;;;;;;4994303;28;20172;-68
2024/02/17 05:46:42;;;;;;;18.53;13.10;;;10.90;99.90;;;;;;4993932;28;20466;-68
2024/02/17 05:49:08;;;;;;;17.10;12.80;;;10.90;99.90;;;;;;4995259;28;20191;-68
2024/02/17 05:51:34;;;;;;;19.10;14.20;;;10.90;99.90;;;;;;4994453;28;20450;-68
2024/02/17 05:53:59;;;;;;;15.73;13.10;;;10.90;99.90;;;;;;4994046;28;20191;-68
2024/02/17 05:56:25;;;;;;;17.10;13.83;;;10.90;99.90;;;;;;4986543;28;20567;-68
2024/02/17 05:58:50;;;;;;;14.40;12.77;;;10.90;99.90;;;;;;4994320;28;20183;-68
2024/02/17 06:01:16;;;;;;;18.70;14.57;;;11.00;99.90;;;;;;4993650;28;20180;-68
2024/02/17 06:03:41;;;;;;;16.27;13.50;;;10.90;99.90;;;;;;4994259;28;20196;-69
2024/02/17 06:06:07;;;;;;;18.50;14.97;;;10.90;99.90;;;;;;4994132;28;20715;-67
2024/02/17 06:08:32;;;;;;;14.10;12.10;;;10.90;99.90;;;;;;4994515;28;20222;-68
2024/02/17 06:10:58;;;;;;;17.67;13.60;;;10.90;99.90;;;;;;4995088;28;20196;-68
2024/02/17 06:13:24;;;;;;;20.57;14.20;;;11.00;99.90;;;;;;4993802;28;20179;-68
2024/02/17 06:15:50;;;;;;;18.90;13.50;;;11.00;99.90;;;;;;4993470;28;20184;-68
2024/02/17 06:21:13;;;;;;;15.73;14.00;;;10.90;99.90;;;;;;4993987;28;20707;-68
2024/02/17 06:23:41;;;;;;;19.57;16.40;;;10.90;99.90;;;;;;4987921;28;20474;-68
2024/02/17 06:26:17;;;;;;;17.80;14.77;;;10.90;99.90;;;;;;4992022;28;20435;-67
2024/02/17 06:28:42;;;;;;;19.90;14.30;;;10.80;99.90;;;;;;4984794;28;20468;-68
2024/02/17 06:31:08;;;;;;;18.20;14.73;;;10.60;99.90;;;;;;4992976;28;20427;-68
2024/02/17 06:33:33;;;;;;;17.73;14.63;;;10.50;99.90;;;;;;4994635;28;20275;-67
2024/02/17 06:35:59;;;;;;;18.77;15.63;;;10.40;99.90;;;;;;4993221;28;20653;-68
2024/02/17 06:38:24;;;;;;;19.40;15.57;;;10.40;99.90;;;;;;4990980;28;20207;-68
2024/02/17 06:40:50;;;;;;;22.47;15.60;;;10.40;99.90;;;;;;4994538;28;20171;-68
2024/02/17 06:43:17;;;;;;;20.30;17.17;;;10.40;99.90;;;;;;4993615;28;20656;-67
2024/02/17 06:45:43;;;;;;;22.23;17.43;;;10.30;99.90;;;;;;4992019;28;20184;-68
2024/02/17 06:48:08;;;;;;;19.80;16.63;;;10.20;99.90;;;;;;4992931;28;20458;-67
2024/02/17 06:50:34;;;;;;;21.57;16.70;;;10.20;99.90;;;;;;4994145;28;20218;-67
2024/02/17 06:52:59;;;;;;;19.80;16.13;;;10.20;99.90;;;;;;4993169;28;20302;-68
2024/02/17 06:55:25;;;;;;;23.30;17.40;;;10.10;99.90;;;;;;4993380;28;20175;-67
2024/02/17 06:57:50;;;;;;;26.63;19.03;;;10.10;99.90;;;;;;4993612;28;20214;-69
2024/02/17 07:00:18;;;;;;;23.20;17.70;;;10.00;99.90;;;;;;4992865;28;20254;-68
2024/02/17 07:02:44;;;;;;;23.70;17.77;;;10.00;99.90;;;;;;4993092;28;20191;-68
2024/02/17 07:05:09;;;;;;;24.80;18.87;;;9.90;99.90;;;;;;4983467;28;20515;-69
2024/02/17 07:07:35;;;;;;;22.57;18.30;;;10.00;99.90;;;;;;4985884;28;20214;-68
2024/02/17 07:10:03;;;;;;;23.03;18.10;;;10.00;99.90;;;;;;4977221;28;20658;-68
2024/02/17 07:12:31;;;;;;;24.43;18.00;;;10.00;99.90;;;;;;4982938;28;20271;-67
2024/02/17 07:14:57;;;;;;;48.00;32.70;;;9.90;99.90;;;;;;4989026;28;20438;-68
2024/02/17 07:17:23;;;;;;;52.80;34.20;;;10.00;99.90;;;;;;4992915;28;20472;-67
2024/02/17 07:19:48;;;;;;;31.90;23.67;;;9.90;99.90;;;;;;4992752;28;20466;-68
2024/02/17 07:22:14;;;;;;;26.60;19.20;;;9.90;99.90;;;;;;4991627;28;20627;-67
2024/02/17 07:24:39;;;;;;;23.03;18.53;;;9.90;99.90;;;;;;4988631;28;20262;-68
2024/02/17 07:27:05;;;;;;;25.50;16.70;;;10.00;99.90;;;;;;4989392;28;20636;-67
2024/02/17 07:29:35;;;;;;;27.37;21.20;;;10.10;99.90;;;;;;4990754;28;20183;-67
2024/02/17 07:32:00;;;;;;;26.83;21.13;;;10.30;99.90;;;;;;4993285;28;20175;-67
2024/02/17 07:34:26;;;;;;;23.23;17.33;;;10.70;99.90;;;;;;4990871;28;21011;-67
2024/02/17 07:36:51;;;;;;;20.77;16.20;;;11.10;99.90;;;;;;4992329;28;20215;-67
2024/02/17 07:39:17;;;;;;;21.40;15.93;;;11.60;99.90;;;;;;4992487;28;20708;-67
2024/02/17 07:41:43;;;;;;;19.27;15.23;;;12.00;99.90;;;;;;4992210;28;20183;-67
2024/02/17 07:44:09;;;;;;;16.73;13.27;;;12.60;99.90;;;;;;4992332;28;20530;-67
2024/02/17 07:46:35;;;;;;;18.80;13.77;;;12.90;99.90;;;;;;4990501;28;20207;-67
2024/02/17 07:49:02;;;;;;;18.77;13.67;;;13.30;99.90;;;;;;4996373;28;20211;-67
2024/02/17 07:51:28;;;;;;;14.20;12.70;;;13.70;99.90;;;;;;4991276;28;20441;-67
2024/02/17 07:53:53;;;;;;;15.23;12.03;;;14.20;99.90;;;;;;4991315;28;20810;-67
2024/02/17 07:56:19;;;;;;;15.63;12.63;;;14.60;99.90;;;;;;4990642;28;20203;-67
2024/02/17 07:58:44;;;;;;;17.20;12.50;;;14.90;99.90;;;;;;4990235;28;20186;-67
2024/02/17 08:01:10;;;;;;;13.70;12.03;;;15.10;99.90;;;;;;4992555;28;20744;-68
2024/02/17 08:03:35;;;;;;;15.53;11.07;;;15.40;99.90;;;;;;4992036;28;20233;-67
2024/02/17 08:06:01;;;;;;;14.57;11.90;;;15.70;99.90;;;;;;4989630;28;20188;-67
2024/02/17 08:08:27;;;;;;;14.47;12.53;;;16.10;99.90;;;;;;4989657;28;20559;-67
2024/02/17 08:10:52;;;;;;;15.10;13.63;;;16.10;99.90;;;;;;4991697;28;20211;-68
2024/02/17 08:13:20;;;;;;;15.53;14.03;;;16.30;99.90;;;;;;4990690;28;20446;-67
2024/02/17 08:15:46;;;;;;;13.63;12.23;;;17.00;99.90;;;;;;4989004;28;20204;-67
2024/02/17 08:18:11;;;;;;;11.27;10.00;;;17.40;99.90;;;;;;4991635;28;20970;-67
2024/02/17 08:20:37;;;;;;;13.00;11.70;;;17.40;99.90;;;;;;4990724;28;20191;-68
2024/02/17 08:23:02;;;;;;;14.00;12.60;;;18.20;99.90;;;;;;4992530;28;20533;-68
2024/02/17 08:25:28;;;;;;;12.90;11.70;;;18.70;99.90;;;;;;4991729;28;20179;-67
2024/02/17 08:27:55;;;;;;;14.27;12.97;;;18.90;99.90;;;;;;4991064;28;20744;-67
2024/02/17 08:30:21;;;;;;;14.77;12.60;;;18.10;99.90;;;;;;4992417;28;20172;-69
2024/02/17 08:32:47;;;;;;;16.40;14.70;;;17.00;99.90;;;;;;4994877;28;20443;-63
2024/02/17 08:35:12;;;;;;;14.97;13.50;;;16.00;99.90;;;;;;4994482;28;20257;-63
2024/02/17 08:37:38;;;;;;;15.87;14.27;;;15.30;99.90;;;;;;4991768;28;20273;-69
2024/02/17 08:40:07;;;;;;;16.43;14.70;;;14.50;99.90;;;;;;4989808;28;20176;-70
2024/02/17 08:42:33;;;;;;;17.60;15.80;;;14.10;99.90;;;;;;4968449;28;20450;-67
2024/02/17 08:44:59;;;;;;;16.93;15.30;;;13.90;99.90;;;;;;4991093;28;20865;-68
2024/02/17 08:47:24;;;;;;;17.93;15.63;;;13.60;99.90;;;;;;4990598;28;20222;-68
2024/02/17 08:49:50;;;;;;;19.07;16.53;;;13.40;99.90;;;;;;4989699;28;20199;-68
2024/02/17 08:52:16;;;;;;;17.93;16.13;;;13.40;99.90;;;;;;4991175;28;20486;-67
2024/02/17 08:54:42;;;;;;;17.17;15.10;;;13.60;99.90;;;;;;4991663;28;20254;-68
2024/02/17 08:57:07;;;;;;;16.70;14.97;;;13.70;99.90;;;;;;4991408;28;20215;-67
2024/02/17 08:59:33;;;;;;;16.63;14.87;;;13.90;99.90;;;;;;4990763;28;20669;-67
2024/02/17 09:01:59;;;;;;;16.43;14.33;;;14.10;99.90;;;;;;4990648;28;20234;-68
2024/02/17 09:04:25;;;;;;;14.40;12.90;;;14.20;99.90;;;;;;4990249;28;20619;-68
2024/02/17 09:06:51;;;;;;;15.10;13.57;;;14.20;99.90;;;;;;4988738;28;20588;-68
2024/02/17 09:09:17;;;;;;;16.40;14.00;;;14.50;99.90;;;;;;4995630;28;20197;-68
2024/02/17 09:11:44;;;;;;;19.90;13.93;;;14.50;99.90;;;;;;4995953;28;20517;-68
2024/02/17 09:14:10;;;;;;;14.73;13.23;;;14.80;99.90;;;;;;4993437;28;20326;-67
2024/02/17 09:16:36;;;;;;;14.47;13.07;;;14.80;99.90;;;;;;4993983;28;20545;-67
2024/02/17 09:19:01;;;;;;;13.47;12.23;;;14.40;99.90;;;;;;4994750;28;20184;-67
2024/02/17 09:21:27;;;;;;;12.83;11.63;;;14.90;99.90;;;;;;4995434;28;20172;-67
2024/02/17 09:23:52;;;;;;;12.70;11.50;;;16.60;99.90;;;;;;4994228;28;20191;-67
2024/02/17 09:26:18;;;;;;;11.53;10.47;;;19.00;99.90;;;;;;4995206;28;20187;-68
2024/02/17 09:28:43;;;;;;;10.73;9.70;;;21.30;99.90;;;;;;4994615;28;20191;-67
2024/02/17 09:31:09;;;;;;;9.53;8.63;;;22.80;99.30;;;;;;4994445;28;20242;-67
2024/02/17 09:33:37;;;;;;;10.17;9.27;;;23.90;92.90;;;;;;4993041;28;20187;-67
2024/02/17 09:36:02;;;;;;;10.23;9.23;;;23.70;87.90;;;;;;4995546;28;20659;-67
2024/02/17 09:38:28;;;;;;;11.50;9.13;;;24.30;84.10;;;;;;4995221;28;20458;-68
2024/02/17 09:40:54;;;;;;;9.47;8.30;;;24.80;80.20;;;;;;4995651;28;20259;-68
2024/02/17 09:43:20;;;;;;;10.47;9.43;;;24.70;78.50;;;;;;4995946;28;20625;-68
2024/02/17 09:45:46;;;;;;;9.17;8.47;;;25.50;70.60;;;;;;4995529;28;20469;-68
2024/02/17 09:48:13;;;;;;;10.13;8.83;;;25.20;67.60;;;;;;4995066;28;20274;-68
2024/02/17 09:50:39;;;;;;;9.33;8.53;;;25.40;70.60;;;;;;4995402;28;20419;-68
2024/02/17 09:53:06;;;;;;;7.83;7.23;;;25.40;63.50;;;;;;4995335;28;20423;-68
2024/02/17 09:55:35;;;;;;;8.93;8.00;;;23.90;68.00;;;;;;4995539;28;20419;-68
2024/02/17 09:58:01;;;;;;;8.70;7.90;;;21.70;77.00;;;;;;4994850;28;20541;-67
2024/02/17 10:00:26;;;;;;;8.60;7.90;;;20.90;89.20;;;;;;4995124;28;20857;-67
2024/02/17 10:02:52;;;;;;;9.23;8.50;;;20.80;91.80;;;;;;4995646;28;20191;-67
2024/02/17 10:05:21;;;;;;;9.87;9.00;;;20.60;92.70;;;;;;4995071;28;20182;-67
2024/02/17 10:07:48;;;;;;;11.80;10.43;;;19.80;97.20;;;;;;4994891;28;20191;-68
2024/02/17 10:10:15;;;;;;;10.67;9.87;;;18.90;99.90;;;;;;4995070;28;20935;-67
2024/02/17 10:12:52;;;;;;;12.30;11.10;;;18.10;99.90;;;;;;4995256;28;20418;-67
2024/02/17 10:15:20;;;;;;;10.63;9.63;;;17.30;99.90;;;;;;4994903;28;20954;-67
2024/02/17 10:17:46;;;;;;;11.00;9.90;;;17.00;99.90;;;;;;4994489;28;20494;-67
2024/02/17 10:20:12;;;;;;;11.50;10.50;;;16.70;99.90;;;;;;4994809;28;20776;-67
2024/02/17 10:22:45;;;;;;;12.63;11.40;;;16.30;99.90;;;;;;4994908;28;20934;-68
2024/02/17 10:25:11;;;;;;;11.87;10.83;;;15.90;99.90;;;;;;4994795;28;20942;-68
2024/02/17 10:27:39;;;;;;;12.17;11.00;;;15.60;99.90;;;;;;4994334;28;20442;-67
2024/02/17 10:30:12;;;;;;;12.70;10.33;;;15.40;99.90;;;;;;4994656;28;20451;-67
2024/02/17 10:32:39;;;;;;;11.97;10.97;;;15.50;99.90;;;;;;4994626;28;20931;-68
2024/02/17 10:35:07;;;;;;;10.50;9.23;;;16.30;99.90;;;;;;4994476;28;20500;-68
2024/02/17 10:37:34;;;;;;;9.90;8.93;;;17.00;99.90;;;;;;4994193;28;20476;-68
2024/02/17 10:40:00;;;;;;;9.53;8.63;;;17.30;99.90;;;;;;4994450;28;20477;-67
2024/02/17 10:42:27;;;;;;;9.10;8.23;;;17.40;99.90;;;;;;4994429;28;20948;-67
2024/02/17 10:44:55;;;;;;;10.00;8.60;;;17.10;99.90;;;;;;4994626;28;20538;-68
2024/02/17 10:47:25;;;;;;;9.90;8.97;;;16.70;99.90;;;;;;4994234;28;20446;-68
2024/02/17 10:50:03;;;;;;;13.43;8.93;;;16.40;99.90;;;;;;4994357;28;20433;-67
2024/02/17 10:52:35;;;;;;;10.67;9.57;;;16.30;99.90;;;;;;4994423;28;20426;-68
2024/02/17 10:55:11;;;;;;;11.30;10.17;;;17.20;99.90;;;;;;4994254;28;20418;-67
2024/02/17 10:57:57;;;;;;;49.67;36.20;;;19.70;99.90;;;;;;4993720;28;20477;-68
2024/02/17 11:00:24;;;;;;;10.40;9.50;;;23.30;92.20;;;;;;4976672;28;20940;-68
2024/02/17 11:02:53;;;;;;;9.37;8.47;;;26.10;70.10;;;;;;4994061;28;20928;-68
2024/02/17 11:05:20;;;;;;;8.47;7.67;;;27.60;56.30;;;;;;4993948;28;20844;-68
2024/02/17 11:07:47;;;;;;;7.47;6.80;;;29.30;50.50;;;;;;4993630;28;20585;-68
2024/02/17 11:10:14;;;;;;;7.23;6.63;;;29.80;43.20;;;;;;4994203;28;21042;-66
2024/02/17 11:12:40;;;;;;;6.97;5.73;;;30.80;40.80;;;;;;4993900;28;20967;-66
2024/02/17 11:15:11;;;;;;;6.33;5.83;;;31.00;38.00;;;;;;4993870;28;20506;-69
2024/02/17 11:17:51;;;;;;;5.90;5.43;;;29.20;37.50;;;;;;4993291;28;20466;-68
2024/02/17 11:20:17;;;;;;;5.93;5.40;;;27.20;39.20;;;;;;4993771;28;20502;-68
2024/02/17 11:22:48;;;;;;;6.93;5.53;;;24.80;42.80;;;;;;4993544;28;20438;-67
2024/02/17 11:25:29;;;;;;;5.40;4.90;;;22.80;48.90;;;;;;4993639;28;20410;-68
2024/02/17 11:28:02;;;;;;;5.80;5.20;;;20.80;54.30;;;;;;4993104;28;20441;-68
2024/02/17 11:30:28;;;;;;;5.23;4.80;;;19.50;65.20;;;;;;4992957;28;20417;-68
2024/02/17 11:32:58;;;;;;;5.60;5.10;;;18.60;76.00;;;;;;4993423;28;20435;-68
2024/02/17 11:35:24;;;;;;;5.40;4.80;;;17.70;90.80;;;;;;4993445;28;20210;-67
2024/02/17 11:37:52;;;;;;;6.20;5.70;;;17.00;94.10;;;;;;4992841;28;20470;-68
2024/02/17 11:40:20;;;;;;;6.03;5.53;;;16.90;97.20;;;;;;4993431;28;20427;-68
2024/02/17 11:42:46;;;;;;;5.80;5.30;;;17.10;95.80;;;;;;4975886;28;20839;-68
2024/02/17 11:45:14;;;;;;;5.47;4.97;;;18.20;93.70;;;;;;4993376;28;20422;-68
2024/02/17 11:47:40;;;;;;;5.57;5.07;;;19.80;80.10;;;;;;4992871;28;20443;-67
2024/02/17 11:50:09;;;;;;;8.13;5.33;;;19.50;75.50;;;;;;4993211;28;20423;-67
2024/02/17 11:52:34;;;;;;;5.20;4.87;;;18.60;83.20;;;;;;4993308;28;20225;-68
2024/02/17 11:55:00;;;;;;;4.93;4.53;;;18.10;87.60;;;;;;4993079;28;20506;-68
2024/02/17 11:57:29;;;;;;;4.77;4.37;;;17.80;89.20;;;;;;4992669;28;20211;-68
2024/02/17 11:59:54;;;;;;;6.83;3.73;;;17.50;88.90;;;;;;4993249;28;20160;-67
2024/02/17 12:02:20;;;;;;;3.83;3.43;;;17.10;92.70;;;;;;4993007;28;20422;-68
2024/02/17 12:04:45;;;;;;;6.03;3.80;;;16.90;92.90;;;;;;4993096;28;20200;-68
2024/02/17 12:07:11;;;;;;;4.90;4.10;;;17.10;93.00;;;;;;4992773;28;20290;-68
2024/02/17 12:09:37;;;;;;;3.70;3.50;;;17.70;92.60;;;;;;4992976;28;20186;-68
2024/02/17 12:12:03;;;;;;;4.93;4.07;;;20.10;77.60;;;;;;4992879;28;20187;-68
2024/02/17 12:14:29;;;;;;;3.53;3.23;;;24.00;57.90;;;;;;4992821;28;20255;-68
2024/02/17 12:16:54;;;;;;;5.50;3.40;;;27.50;46.30;;;;;;4992354;28;20494;-68
2024/02/17 12:19:20;;;;;;;3.43;3.03;;;29.00;39.60;;;;;;4992771;28;20419;-68
2024/02/17 12:21:45;;;;;;;3.40;3.10;;;28.40;36.40;;;;;;4992723;28;20172;-68
2024/02/17 12:24:11;;;;;;;3.37;3.07;;;26.70;35.90;;;;;;4992653;28;20250;-68
2024/02/17 12:26:37;;;;;;;3.90;3.60;;;25.30;38.40;;;;;;4992386;28;20200;-68
2024/02/17 12:29:03;;;;;;;4.40;4.10;;;25.50;39.70;;;;;;4992844;28;20214;-68
2024/02/17 12:31:30;;;;;;;8.67;3.90;;;24.40;42.20;;;;;;4992577;28;20176;-67
2024/02/17 12:33:56;;;;;;;4.50;4.20;;;24.30;44.80;;;;;;4992689;28;20430;-68